Aviation Digital Data Service (ADDS)

Output produced by METARs form (1009 UTC 21 April 2021)
found at http://www.aviationweather.gov/metar/data/
 
METAR text: EDDK 210950Z VRB03KT CAVOK 12/06 Q1017 BECMG 31007KT
Conditions at: EDDK (KOELN/BONN , DE) observed 0950 UTC 21 April 2021
Temperature: 12.0°C (54°F)
Dewpoint: 6.0°C (43°F) [RH = 67%]
Pressure (altimeter): 30.03 inches Hg (1017.0 mb)
Winds: variable direction winds at 3 MPH (3 knots; 1.5 m/s)
Visibility: 6 or more miles (10+ km)
Ceiling: ceiling and visibility are OK
Clouds: unknown
Weather: no significant weather observed at this time

METAR text: EDDK 210920Z VRB02KT CAVOK 11/06 Q1017 BECMG 31007KT
Conditions at: EDDK (KOELN/BONN , DE) observed 0920 UTC 21 April 2021
Temperature: 11.0°C (52°F)
Dewpoint: 6.0°C (43°F) [RH = 71%]
Pressure (altimeter): 30.03 inches Hg (1017.0 mb)
Winds: variable direction winds at 2 MPH (2 knots; 1.0 m/s)
Visibility: 6 or more miles (10+ km)
Ceiling: ceiling and visibility are OK
Clouds: unknown
Weather: no significant weather observed at this time

Forecast for: EDDK (KOELN/BONN , DE)
Text: TAF EDDK 210500Z 2106/2212 VRB03KT CAVOK
Forecast period: 0600 to 0900 UTC 21 April 2021
Forecast type: FROM: standard forecast or significant change
Winds: variable direction winds at 3 MPH (3 knots; 1.5 m/s)
Visibility: 6 or more miles (10+ km)
Ceiling: unknown
Clouds: missing
Weather: NSW  (no significant weather)
Text: BECMG 2109/2111 31006KT
Forecast period: 0900 to 1500 UTC 21 April 2021
Forecast type: BECOMING: Conditions expected to become as follows by 1100 UTC 21 April 2021
Winds: from the NW (310 degrees) at 7 MPH (6 knots; 3.1 m/s)
Visibility: 6 or more miles (10+ km)
Ceiling: unknown
Clouds: missing
Weather: NSW  (no significant weather)
Text: BECMG 2115/2118 01010KT
Forecast period: 1500 to 2200 UTC 21 April 2021
Forecast type: BECOMING: Conditions expected to become as follows by 1800 UTC 21 April 2021
Winds: from the N (10 degrees) at 12 MPH (10 knots; 5.1 m/s)
Visibility: 6 or more miles (10+ km)
Ceiling: unknown
Clouds: missing
Weather: NSW  (no significant weather)
Text: BECMG 2122/2124 36005KT
Forecast period: 2200 UTC 21 April 2021 to 1200 UTC 22 April 2021
Forecast type: BECOMING: Conditions expected to become as follows by 0000 UTC 22 April 2021
Winds: from the N (360 degrees) at 6 MPH (5 knots; 2.6 m/s)
Visibility: 6 or more miles (10+ km)
Ceiling: unknown
Clouds: missing
Weather: NSW  (no significant weather)
Text: TEMPO 2201/2207 VRB03KT
Forecast period: 0100 to 0700 UTC 22 April 2021
Forecast type: TEMPORARY: The following changes expected for less than half the time period
Winds: variable direction winds at 3 MPH (3 knots; 1.5 m/s)
Visibility: missing
Ceiling: unknown
Clouds: missing
Weather: no significant weather forecast for this period

METAR text: EDGS 210950Z 30004KT 240V360 9999 FEW017 SCT023 14/09 Q1016
Conditions at: EDGS (SIEGERLAND , DE) observed 0950 UTC 21 April 2021
Temperature: 14.0°C (57°F)
Dewpoint: 9.0°C (48°F) [RH = 72%]
Pressure (altimeter): 30.00 inches Hg (1016.0 mb)
Winds: from the WNW (300 degrees) at 5 MPH (4 knots; 2.1 m/s)
Visibility: 6 or more miles (10+ km)
Ceiling: at least 12,000 feet AGL
Clouds: few clouds at 1700 feet AGL
scattered clouds at 2300 feet AGL
Weather: no significant weather observed at this time

METAR text: EDGS 210920Z VRB03KT 9999 FEW010 14/10 Q1016
Conditions at: EDGS (SIEGERLAND , DE) observed 0920 UTC 21 April 2021
Temperature: 14.0°C (57°F)
Dewpoint: 10.0°C (50°F) [RH = 77%]
Pressure (altimeter): 30.00 inches Hg (1016.0 mb)
Winds: variable direction winds at 3 MPH (3 knots; 1.5 m/s)
Visibility: 6 or more miles (10+ km)
Ceiling: at least 12,000 feet AGL
Clouds: few clouds at 1000 feet AGL
Weather: no significant weather observed at this time

Forecast for: EDGS (SIEGERLAND , DE)
Text: TAF EDGS 210800Z 2109/2118 VRB02KT 9999 SCT025
Forecast period: 0900 to 1800 UTC 21 April 2021
Forecast type: FROM: standard forecast or significant change
Winds: variable direction winds at 2 MPH (2 knots; 1.0 m/s)
Visibility: 6 or more miles (10+ km)
Ceiling: at least 12,000 feet AGL
Clouds: scattered clouds at 2500 feet AGL
Weather: no significant weather forecast for this period
Text: BECMG 2109/2111 34008KT
Forecast period: 0900 to 1800 UTC 21 April 2021
Forecast type: BECOMING: Conditions expected to become as follows by 1100 UTC 21 April 2021
Winds: from the NNW (340 degrees) at 9 MPH (8 knots; 4.1 m/s)
Visibility: 6 or more miles (10+ km)
Ceiling: at least 12,000 feet AGL
Clouds: scattered clouds at 2500 feet AGL
Weather: no significant weather forecast for this period
Text: TEMPO 2110/2116 SHRA BKN025CB
Forecast period: 1000 to 1600 UTC 21 April 2021
Forecast type: TEMPORARY: The following changes expected for less than half the time period
Visibility: missing
Ceiling: 2500 feet AGL
Clouds: broken clouds at 2500 feet AGL
Weather: SHRA  (rain showers)
Text: PROB40
Forecast period: 1100 to 1600 UTC 21 April 2021
Forecast type: TEMPORARY: The following changes expected for less than half the time period
Winds: from the N (350 degrees) at 15 MPH (13 knots; 6.7 m/s)
Visibility: 2.49 miles (4.01 km)
Ceiling: 1500 feet AGL
Clouds: broken clouds at 1500 feet AGL
Weather: TSRA  (rain associated with thunderstorm(s))

METAR text: EDLW 210950Z VRB05KT CAVOK 15/03 Q1017
Conditions at: EDLW (DORTMUND/WICKEDE, DE) observed 0950 UTC 21 April 2021
Temperature: 15.0°C (59°F)
Dewpoint: 3.0°C (37°F) [RH = 44%]
Pressure (altimeter): 30.03 inches Hg (1017.0 mb)
Winds: variable direction winds at 6 MPH (5 knots; 2.6 m/s)
Visibility: 6 or more miles (10+ km)
Ceiling: ceiling and visibility are OK
Clouds: unknown
Weather: no significant weather observed at this time

METAR text: EDLW 210920Z 35004KT 290V050 CAVOK 14/03 Q1017
Conditions at: EDLW (DORTMUND/WICKEDE, DE) observed 0920 UTC 21 April 2021
Temperature: 14.0°C (57°F)
Dewpoint: 3.0°C (37°F) [RH = 47%]
Pressure (altimeter): 30.03 inches Hg (1017.0 mb)
Winds: from the N (350 degrees) at 5 MPH (4 knots; 2.1 m/s)
Visibility: 6 or more miles (10+ km)
Ceiling: ceiling and visibility are OK
Clouds: unknown
Weather: no significant weather observed at this time

Forecast for: EDLW (DORTMUND/WICKEDE, DE)
Text: TAF EDLW 210500Z 2106/2206 18005KT CAVOK
Forecast period: 0600 UTC 21 April 2021 to 0600 UTC 22 April 2021
Forecast type: FROM: standard forecast or significant change
Winds: from the S (180 degrees) at 6 MPH (5 knots; 2.6 m/s)
Visibility: 6 or more miles (10+ km)
Ceiling: unknown
Clouds: missing
Weather: NSW  (no significant weather)
Text: BECMG 2106/2109 33005KT
Forecast period: 0600 UTC 21 April 2021 to 0600 UTC 22 April 2021
Forecast type: BECOMING: Conditions expected to become as follows by 0900 UTC 21 April 2021
Winds: from the NNW (330 degrees) at 6 MPH (5 knots; 2.6 m/s)
Visibility: 6 or more miles (10+ km)
Ceiling: unknown
Clouds: missing
Weather: NSW  (no significant weather)
Text: TEMPO 2113/2118 36010KT
Forecast period: 1300 to 1800 UTC 21 April 2021
Forecast type: TEMPORARY: The following changes expected for less than half the time period
Winds: from the N (360 degrees) at 12 MPH (10 knots; 5.1 m/s)
Visibility: missing
Ceiling: unknown
Clouds: missing
Weather: no significant weather forecast for this period

METAR text: EDDL 210950Z 30005KT 260V340 CAVOK 15/06 Q1017 BECMG 31008KT
Conditions at: EDDL (DUESSELDORF , DE) observed 0950 UTC 21 April 2021
Temperature: 15.0°C (59°F)
Dewpoint: 6.0°C (43°F) [RH = 55%]
Pressure (altimeter): 30.03 inches Hg (1017.0 mb)
Winds: from the WNW (300 degrees) at 6 MPH (5 knots; 2.6 m/s)
Visibility: 6 or more miles (10+ km)
Ceiling: ceiling and visibility are OK
Clouds: unknown
Weather: no significant weather observed at this time

METAR text: EDDL 210920Z 33004KT 280V360 CAVOK 14/07 Q1017 BECMG 31008KT
Conditions at: EDDL (DUESSELDORF , DE) observed 0920 UTC 21 April 2021
Temperature: 14.0°C (57°F)
Dewpoint: 7.0°C (45°F) [RH = 63%]
Pressure (altimeter): 30.03 inches Hg (1017.0 mb)
Winds: from the NNW (330 degrees) at 5 MPH (4 knots; 2.1 m/s)
Visibility: 6 or more miles (10+ km)
Ceiling: ceiling and visibility are OK
Clouds: unknown
Weather: no significant weather observed at this time

Forecast for: EDDL (DUESSELDORF , DE)
Text: TAF EDDL 210500Z 2106/2212 VRB03KT CAVOK
Forecast period: 0600 to 0800 UTC 21 April 2021
Forecast type: FROM: standard forecast or significant change
Winds: variable direction winds at 3 MPH (3 knots; 1.5 m/s)
Visibility: 6 or more miles (10+ km)
Ceiling: unknown
Clouds: missing
Weather: NSW  (no significant weather)
Text: BECMG 2108/2111 34009KT
Forecast period: 0800 to 2200 UTC 21 April 2021
Forecast type: BECOMING: Conditions expected to become as follows by 1100 UTC 21 April 2021
Winds: from the NNW (340 degrees) at 10 MPH (9 knots; 4.6 m/s)
Visibility: 6 or more miles (10+ km)
Ceiling: unknown
Clouds: missing
Weather: NSW  (no significant weather)
Text: PROB30
Forecast period: 1500 to 1900 UTC 21 April 2021
Forecast type: TEMPORARY: The following changes expected for less than half the time period
Winds: from the N (360 degrees) at 16 MPH (14 knots; 7.2 m/s)
Visibility: missing
Ceiling: unknown
Clouds: missing
Weather: no significant weather forecast for this period
Text: TEMPO 2115/2119 36014KT
Forecast period: 2200 UTC 21 April 2021 to 0800 UTC 22 April 2021
Forecast type: BECOMING: Conditions expected to become as follows by 0000 UTC 22 April 2021
Winds: from the N (10 degrees) at 5 MPH (4 knots; 2.1 m/s)
Visibility: 6 or more miles (10+ km)
Ceiling: unknown
Clouds: missing
Weather: NSW  (no significant weather)
Text: BECMG 2122/2124 01004KT
Forecast period: 0800 to 1200 UTC 22 April 2021
Forecast type: BECOMING: Conditions expected to become as follows by 1100 UTC 22 April 2021
Winds: from the N (360 degrees) at 10 MPH (9 knots; 4.6 m/s)
Visibility: 6 or more miles (10+ km)
Ceiling: unknown
Clouds: missing
Weather: NSW  (no significant weather)